sensor_id;sensor_type;location;lat;lon;timestamp;P1;durP1;ratioP1;P2;durP2;ratioP2
32038;SDS011;18549;42.286;22.688;2022-08-04T00:00:38;2.92;;;2.35;;
32038;SDS011;18549;42.286;22.688;2022-08-04T00:03:10;10.52;;;2.67;;
32038;SDS011;18549;42.286;22.688;2022-08-04T00:11:13;7.00;;;2.33;;
32038;SDS011;18549;42.286;22.688;2022-08-04T00:13:44;4.95;;;2.08;;
32038;SDS011;18549;42.286;22.688;2022-08-04T00:16:16;3.33;;;2.92;;
32038;SDS011;18549;42.286;22.688;2022-08-04T00:18:49;2.78;;;2.22;;
32038;SDS011;18549;42.286;22.688;2022-08-04T00:21:27;5.97;;;2.80;;
32038;SDS011;18549;42.286;22.688;2022-08-04T00:23:55;3.70;;;2.17;;
32038;SDS011;18549;42.286;22.688;2022-08-04T00:26:22;2.37;;;2.15;;
32038;SDS011;18549;42.286;22.688;2022-08-04T00:28:49;2.80;;;2.28;;
32038;SDS011;18549;42.286;22.688;2022-08-04T00:31:15;2.72;;;2.50;;
32038;SDS011;18549;42.286;22.688;2022-08-04T00:33:45;2.12;;;1.92;;
32038;SDS011;18549;42.286;22.688;2022-08-04T00:36:11;10.32;;;2.90;;
32038;SDS011;18549;42.286;22.688;2022-08-04T00:38:40;6.10;;;2.92;;
32038;SDS011;18549;42.286;22.688;2022-08-04T00:44:01;2.72;;;2.53;;
32038;SDS011;18549;42.286;22.688;2022-08-04T00:54:59;2.75;;;2.30;;
32038;SDS011;18549;42.286;22.688;2022-08-04T01:00:25;4.10;;;2.75;;
32038;SDS011;18549;42.286;22.688;2022-08-04T01:03:10;5.32;;;2.08;;
32038;SDS011;18549;42.286;22.688;2022-08-04T01:05:51;3.28;;;2.15;;
32038;SDS011;18549;42.286;22.688;2022-08-04T01:14:13;4.05;;;2.67;;
32038;SDS011;18549;42.286;22.688;2022-08-04T01:17:03;2.97;;;2.33;;
32038;SDS011;18549;42.286;22.688;2022-08-04T01:20:03;5.18;;;2.30;;
32038;SDS011;18549;42.286;22.688;2022-08-04T01:29:55;3.47;;;2.85;;
32038;SDS011;18549;42.286;22.688;2022-08-04T01:32:35;4.03;;;2.28;;
32038;SDS011;18549;42.286;22.688;2022-08-04T01:35:13;4.07;;;2.95;;
32038;SDS011;18549;42.286;22.688;2022-08-04T01:40:33;2.45;;;2.25;;
32038;SDS011;18549;42.286;22.688;2022-08-04T01:43:01;4.25;;;2.40;;
32038;SDS011;18549;42.286;22.688;2022-08-04T01:45:27;2.70;;;2.20;;
32038;SDS011;18549;42.286;22.688;2022-08-04T01:47:54;6.82;;;2.20;;
32038;SDS011;18549;42.286;22.688;2022-08-04T01:50:21;5.12;;;2.67;;
32038;SDS011;18549;42.286;22.688;2022-08-04T01:52:49;2.70;;;2.50;;
32038;SDS011;18549;42.286;22.688;2022-08-04T01:55:17;3.12;;;2.83;;
32038;SDS011;18549;42.286;22.688;2022-08-04T01:57:50;2.85;;;2.45;;
32038;SDS011;18549;42.286;22.688;2022-08-04T02:00:20;3.40;;;2.80;;
32038;SDS011;18549;42.286;22.688;2022-08-04T02:02:48;4.43;;;2.92;;
32038;SDS011;18549;42.286;22.688;2022-08-04T02:05:15;2.92;;;2.53;;
32038;SDS011;18549;42.286;22.688;2022-08-04T02:18:18;3.12;;;2.60;;
32038;SDS011;18549;42.286;22.688;2022-08-04T02:20:48;2.78;;;2.50;;
32038;SDS011;18549;42.286;22.688;2022-08-04T02:23:30;4.65;;;3.12;;
32038;SDS011;18549;42.286;22.688;2022-08-04T02:26:01;4.60;;;3.00;;
32038;SDS011;18549;42.286;22.688;2022-08-04T02:28:32;4.43;;;3.08;;
32038;SDS011;18549;42.286;22.688;2022-08-04T02:31:11;7.43;;;2.75;;
32038;SDS011;18549;42.286;22.688;2022-08-04T02:33:40;3.78;;;2.20;;
32038;SDS011;18549;42.286;22.688;2022-08-04T02:36:08;3.22;;;2.78;;
32038;SDS011;18549;42.286;22.688;2022-08-04T02:38:39;3.62;;;3.15;;
32038;SDS011;18549;42.286;22.688;2022-08-04T02:41:17;3.00;;;2.67;;
32038;SDS011;18549;42.286;22.688;2022-08-04T02:43:46;4.85;;;2.65;;
32038;SDS011;18549;42.286;22.688;2022-08-04T02:46:14;4.00;;;3.35;;
32038;SDS011;18549;42.286;22.688;2022-08-04T02:48:44;5.70;;;2.50;;
32038;SDS011;18549;42.286;22.688;2022-08-04T02:51:12;4.97;;;3.05;;
32038;SDS011;18549;42.286;22.688;2022-08-04T02:53:40;5.45;;;3.05;;
32038;SDS011;18549;42.286;22.688;2022-08-04T02:56:08;7.12;;;2.60;;
32038;SDS011;18549;42.286;22.688;2022-08-04T02:58:35;7.18;;;2.90;;
32038;SDS011;18549;42.286;22.688;2022-08-04T03:01:02;10.88;;;3.00;;
32038;SDS011;18549;42.286;22.688;2022-08-04T03:03:39;4.18;;;2.47;;
32038;SDS011;18549;42.286;22.688;2022-08-04T03:06:20;5.60;;;2.95;;
32038;SDS011;18549;42.286;22.688;2022-08-04T03:42:43;7.28;;;3.83;;
32038;SDS011;18549;42.286;22.688;2022-08-04T03:51:35;18.75;;;4.50;;
32038;SDS011;18549;42.286;22.688;2022-08-04T03:57:21;8.48;;;3.85;;
32038;SDS011;18549;42.286;22.688;2022-08-04T04:02:52;8.43;;;3.35;;
32038;SDS011;18549;42.286;22.688;2022-08-04T04:16:37;5.10;;;3.55;;
32038;SDS011;18549;42.286;22.688;2022-08-04T04:30:24;6.07;;;4.07;;
32038;SDS011;18549;42.286;22.688;2022-08-04T04:33:02;14.87;;;5.12;;
32038;SDS011;18549;42.286;22.688;2022-08-04T04:46:49;5.07;;;4.05;;
32038;SDS011;18549;42.286;22.688;2022-08-04T04:49:36;8.27;;;4.12;;
32038;SDS011;18549;42.286;22.688;2022-08-04T04:52:11;7.78;;;4.28;;
32038;SDS011;18549;42.286;22.688;2022-08-04T04:57:28;5.87;;;3.78;;
32038;SDS011;18549;42.286;22.688;2022-08-04T04:59:55;4.72;;;3.37;;
32038;SDS011;18549;42.286;22.688;2022-08-04T05:13:37;9.43;;;3.80;;
32038;SDS011;18549;42.286;22.688;2022-08-04T05:16:18;9.48;;;4.70;;
32038;SDS011;18549;42.286;22.688;2022-08-04T05:18:50;13.18;;;6.35;;
32038;SDS011;18549;42.286;22.688;2022-08-04T05:21:38;25.42;;;6.70;;
32038;SDS011;18549;42.286;22.688;2022-08-04T05:24:07;12.40;;;5.18;;
32038;SDS011;18549;42.286;22.688;2022-08-04T05:26:36;8.23;;;5.03;;
32038;SDS011;18549;42.286;22.688;2022-08-04T05:29:06;16.87;;;5.60;;
32038;SDS011;18549;42.286;22.688;2022-08-04T05:31:37;12.23;;;6.05;;
32038;SDS011;18549;42.286;22.688;2022-08-04T05:35:08;8.25;;;4.70;;
32038;SDS011;18549;42.286;22.688;2022-08-04T05:37:17;4.78;;;4.03;;
32038;SDS011;18549;42.286;22.688;2022-08-04T05:39:45;17.45;;;4.80;;
32038;SDS011;18549;42.286;22.688;2022-08-04T05:42:13;14.48;;;4.30;;
32038;SDS011;18549;42.286;22.688;2022-08-04T05:44:39;10.30;;;3.65;;
32038;SDS011;18549;42.286;22.688;2022-08-04T05:47:07;9.13;;;3.83;;
32038;SDS011;18549;42.286;22.688;2022-08-04T05:49:35;5.72;;;3.83;;
32038;SDS011;18549;42.286;22.688;2022-08-04T05:52:05;7.87;;;3.60;;
32038;SDS011;18549;42.286;22.688;2022-08-04T05:54:33;10.52;;;4.30;;
32038;SDS011;18549;42.286;22.688;2022-08-04T05:57:01;10.82;;;3.65;;
32038;SDS011;18549;42.286;22.688;2022-08-04T05:59:28;3.72;;;3.33;;
32038;SDS011;18549;42.286;22.688;2022-08-04T06:01:56;6.05;;;2.97;;
32038;SDS011;18549;42.286;22.688;2022-08-04T06:04:25;10.18;;;3.70;;
32038;SDS011;18549;42.286;22.688;2022-08-04T06:06:55;5.07;;;3.42;;
32038;SDS011;18549;42.286;22.688;2022-08-04T06:09:21;6.53;;;2.70;;
32038;SDS011;18549;42.286;22.688;2022-08-04T06:11:46;7.05;;;3.50;;
32038;SDS011;18549;42.286;22.688;2022-08-04T06:14:14;4.30;;;3.17;;
32038;SDS011;18549;42.286;22.688;2022-08-04T06:16:41;4.50;;;3.50;;
32038;SDS011;18549;42.286;22.688;2022-08-04T06:19:10;9.32;;;4.95;;
32038;SDS011;18549;42.286;22.688;2022-08-04T06:21:38;8.90;;;4.12;;
32038;SDS011;18549;42.286;22.688;2022-08-04T06:24:07;4.57;;;3.58;;
32038;SDS011;18549;42.286;22.688;2022-08-04T06:26:36;4.85;;;3.58;;
32038;SDS011;18549;42.286;22.688;2022-08-04T06:29:04;5.62;;;3.05;;
32038;SDS011;18549;42.286;22.688;2022-08-04T06:31:40;7.87;;;3.30;;
32038;SDS011;18549;42.286;22.688;2022-08-04T06:34:08;3.87;;;2.83;;
32038;SDS011;18549;42.286;22.688;2022-08-04T06:36:35;6.30;;;2.92;;
32038;SDS011;18549;42.286;22.688;2022-08-04T06:39:03;4.00;;;3.08;;
32038;SDS011;18549;42.286;22.688;2022-08-04T06:41:29;4.05;;;3.15;;
32038;SDS011;18549;42.286;22.688;2022-08-04T06:44:00;3.40;;;2.92;;
32038;SDS011;18549;42.286;22.688;2022-08-04T06:46:30;3.08;;;2.78;;
32038;SDS011;18549;42.286;22.688;2022-08-04T06:48:56;12.35;;;3.25;;
32038;SDS011;18549;42.286;22.688;2022-08-04T06:51:22;3.42;;;2.97;;
32038;SDS011;18549;42.286;22.688;2022-08-04T06:53:49;3.58;;;3.10;;
32038;SDS011;18549;42.286;22.688;2022-08-04T06:56:15;8.75;;;3.33;;
32038;SDS011;18549;42.286;22.688;2022-08-04T06:58:42;6.72;;;3.50;;
32038;SDS011;18549;42.286;22.688;2022-08-04T07:01:12;4.40;;;3.00;;
32038;SDS011;18549;42.286;22.688;2022-08-04T07:03:40;3.92;;;3.30;;
32038;SDS011;18549;42.286;22.688;2022-08-04T07:06:07;9.75;;;3.40;;
32038;SDS011;18549;42.286;22.688;2022-08-04T07:08:33;10.23;;;3.08;;
32038;SDS011;18549;42.286;22.688;2022-08-04T07:11:01;5.32;;;3.20;;
32038;SDS011;18549;42.286;22.688;2022-08-04T07:13:27;3.97;;;3.33;;
32038;SDS011;18549;42.286;22.688;2022-08-04T07:15:55;4.97;;;3.58;;
32038;SDS011;18549;42.286;22.688;2022-08-04T07:18:23;3.80;;;3.35;;
32038;SDS011;18549;42.286;22.688;2022-08-04T07:20:48;6.03;;;3.45;;
32038;SDS011;18549;42.286;22.688;2022-08-04T07:23:15;4.25;;;3.65;;
32038;SDS011;18549;42.286;22.688;2022-08-04T07:25:50;7.50;;;3.30;;
32038;SDS011;18549;42.286;22.688;2022-08-04T07:28:17;5.03;;;3.40;;
32038;SDS011;18549;42.286;22.688;2022-08-04T07:30:44;3.92;;;3.53;;
32038;SDS011;18549;42.286;22.688;2022-08-04T07:33:11;5.22;;;3.87;;
32038;SDS011;18549;42.286;22.688;2022-08-04T07:35:36;3.95;;;3.12;;
32038;SDS011;18549;42.286;22.688;2022-08-04T07:38:04;4.85;;;4.05;;
32038;SDS011;18549;42.286;22.688;2022-08-04T07:40:29;5.00;;;3.58;;
32038;SDS011;18549;42.286;22.688;2022-08-04T07:42:56;5.10;;;4.07;;
32038;SDS011;18549;42.286;22.688;2022-08-04T07:45:22;6.32;;;4.10;;
32038;SDS011;18549;42.286;22.688;2022-08-04T07:47:49;5.35;;;4.12;;
32038;SDS011;18549;42.286;22.688;2022-08-04T07:50:15;3.92;;;3.53;;
32038;SDS011;18549;42.286;22.688;2022-08-04T07:52:42;5.18;;;3.42;;
32038;SDS011;18549;42.286;22.688;2022-08-04T07:55:09;4.68;;;3.90;;
32038;SDS011;18549;42.286;22.688;2022-08-04T07:57:36;4.57;;;3.35;;
32038;SDS011;18549;42.286;22.688;2022-08-04T08:00:03;5.10;;;3.87;;
32038;SDS011;18549;42.286;22.688;2022-08-04T08:02:29;5.30;;;3.42;;
32038;SDS011;18549;42.286;22.688;2022-08-04T08:04:57;6.37;;;3.28;;
32038;SDS011;18549;42.286;22.688;2022-08-04T08:07:23;7.93;;;3.78;;
32038;SDS011;18549;42.286;22.688;2022-08-04T08:09:49;5.43;;;3.55;;
32038;SDS011;18549;42.286;22.688;2022-08-04T08:12:14;5.85;;;3.75;;
32038;SDS011;18549;42.286;22.688;2022-08-04T08:14:41;3.72;;;3.33;;
32038;SDS011;18549;42.286;22.688;2022-08-04T08:17:08;4.15;;;3.50;;
32038;SDS011;18549;42.286;22.688;2022-08-04T08:19:34;7.12;;;3.50;;
32038;SDS011;18549;42.286;22.688;2022-08-04T08:21:59;6.07;;;4.03;;
32038;SDS011;18549;42.286;22.688;2022-08-04T08:24:27;5.22;;;3.37;;
32038;SDS011;18549;42.286;22.688;2022-08-04T08:26:53;5.10;;;3.47;;
32038;SDS011;18549;42.286;22.688;2022-08-04T08:29:21;5.50;;;3.12;;
32038;SDS011;18549;42.286;22.688;2022-08-04T08:31:47;5.70;;;3.22;;
32038;SDS011;18549;42.286;22.688;2022-08-04T08:34:13;4.65;;;2.97;;
32038;SDS011;18549;42.286;22.688;2022-08-04T08:39:38;14.38;;;3.22;;
32038;SDS011;18549;42.286;22.688;2022-08-04T09:12:24;5.35;;;3.60;;
32038;SDS011;18549;42.286;22.688;2022-08-04T09:17:41;3.70;;;2.75;;
32038;SDS011;18549;42.286;22.688;2022-08-04T09:31:29;5.10;;;2.83;;
32038;SDS011;18549;42.286;22.688;2022-08-04T09:34:25;5.07;;;2.95;;
32038;SDS011;18549;42.286;22.688;2022-08-04T09:37:43;3.15;;;2.15;;
32038;SDS011;18549;42.286;22.688;2022-08-04T09:42:47;4.87;;;2.72;;
32038;SDS011;18549;42.286;22.688;2022-08-04T09:53:26;2.83;;;2.53;;
32038;SDS011;18549;42.286;22.688;2022-08-04T10:01:16;4.07;;;2.15;;
32038;SDS011;18549;42.286;22.688;2022-08-04T10:03:51;5.53;;;2.28;;
32038;SDS011;18549;42.286;22.688;2022-08-04T10:09:33;3.12;;;2.17;;
32038;SDS011;18549;42.286;22.688;2022-08-04T10:12:19;2.58;;;2.30;;
32038;SDS011;18549;42.286;22.688;2022-08-04T10:17:30;10.80;;;3.05;;
32038;SDS011;18549;42.286;22.688;2022-08-04T10:22:54;2.72;;;1.85;;
32038;SDS011;18549;42.286;22.688;2022-08-04T10:25:41;3.12;;;2.20;;
32038;SDS011;18549;42.286;22.688;2022-08-04T10:28:14;2.33;;;2.12;;
32038;SDS011;18549;42.286;22.688;2022-08-04T10:30:46;4.85;;;2.42;;
32038;SDS011;18549;42.286;22.688;2022-08-04T10:33:31;4.07;;;1.83;;
32038;SDS011;18549;42.286;22.688;2022-08-04T10:36:07;8.80;;;2.30;;
32038;SDS011;18549;42.286;22.688;2022-08-04T10:38:51;2.20;;;1.95;;
32038;SDS011;18549;42.286;22.688;2022-08-04T10:47:18;3.40;;;2.00;;
32038;SDS011;18549;42.286;22.688;2022-08-04T10:49:53;1.70;;;1.60;;
32038;SDS011;18549;42.286;22.688;2022-08-04T10:55:35;11.07;;;2.15;;
32038;SDS011;18549;42.286;22.688;2022-08-04T10:58:08;2.08;;;1.40;;
32038;SDS011;18549;42.286;22.688;2022-08-04T11:00:40;3.75;;;1.83;;
32038;SDS011;18549;42.286;22.688;2022-08-04T11:11:01;6.87;;;2.67;;
32038;SDS011;18549;42.286;22.688;2022-08-04T11:13:43;5.22;;;2.00;;
32038;SDS011;18549;42.286;22.688;2022-08-04T11:16:55;8.20;;;2.33;;
32038;SDS011;18549;42.286;22.688;2022-08-04T11:21:46;2.47;;;1.87;;
32038;SDS011;18549;42.286;22.688;2022-08-04T11:24:32;2.60;;;1.92;;
32038;SDS011;18549;42.286;22.688;2022-08-04T11:27:04;6.80;;;1.70;;
32038;SDS011;18549;42.286;22.688;2022-08-04T11:35:23;6.07;;;1.98;;
32038;SDS011;18549;42.286;22.688;2022-08-04T11:38:01;3.20;;;2.20;;
32038;SDS011;18549;42.286;22.688;2022-08-04T11:40:36;2.85;;;1.98;;
32038;SDS011;18549;42.286;22.688;2022-08-04T11:43:15;5.78;;;1.58;;
32038;SDS011;18549;42.286;22.688;2022-08-04T11:45:53;2.85;;;2.30;;
32038;SDS011;18549;42.286;22.688;2022-08-04T11:48:31;2.85;;;2.05;;
32038;SDS011;18549;42.286;22.688;2022-08-04T11:51:02;6.30;;;2.25;;
32038;SDS011;18549;42.286;22.688;2022-08-04T11:53:30;3.72;;;2.33;;
32038;SDS011;18549;42.286;22.688;2022-08-04T11:56:02;3.55;;;1.98;;
32038;SDS011;18549;42.286;22.688;2022-08-04T11:58:31;3.33;;;2.15;;
32038;SDS011;18549;42.286;22.688;2022-08-04T12:01:15;2.25;;;2.03;;
32038;SDS011;18549;42.286;22.688;2022-08-04T12:09:27;3.22;;;1.87;;
32038;SDS011;18549;42.286;22.688;2022-08-04T12:12:36;2.67;;;1.83;;
32038;SDS011;18549;42.286;22.688;2022-08-04T12:15:25;5.90;;;2.20;;
32038;SDS011;18549;42.286;22.688;2022-08-04T12:20:30;5.07;;;2.40;;
32038;SDS011;18549;42.286;22.688;2022-08-04T12:23:03;2.25;;;2.05;;
32038;SDS011;18549;42.286;22.688;2022-08-04T12:25:33;3.55;;;2.62;;
32038;SDS011;18549;42.286;22.688;2022-08-04T12:28:06;3.75;;;2.30;;
32038;SDS011;18549;42.286;22.688;2022-08-04T12:30:37;10.18;;;2.12;;
32038;SDS011;18549;42.286;22.688;2022-08-04T12:33:14;3.90;;;2.45;;
32038;SDS011;18549;42.286;22.688;2022-08-04T12:36:31;3.47;;;2.00;;
32038;SDS011;18549;42.286;22.688;2022-08-04T12:39:19;3.08;;;2.50;;
32038;SDS011;18549;42.286;22.688;2022-08-04T12:44:33;2.33;;;1.90;;
32038;SDS011;18549;42.286;22.688;2022-08-04T12:47:02;5.43;;;1.85;;
32038;SDS011;18549;42.286;22.688;2022-08-04T12:49:31;5.07;;;2.33;;
32038;SDS011;18549;42.286;22.688;2022-08-04T12:51:59;5.18;;;1.98;;
32038;SDS011;18549;42.286;22.688;2022-08-04T12:54:36;3.47;;;2.22;;
32038;SDS011;18549;42.286;22.688;2022-08-04T12:57:07;5.15;;;2.62;;
32038;SDS011;18549;42.286;22.688;2022-08-04T12:59:42;2.47;;;2.22;;
32038;SDS011;18549;42.286;22.688;2022-08-04T13:02:11;3.70;;;2.58;;
32038;SDS011;18549;42.286;22.688;2022-08-04T13:04:42;7.40;;;2.30;;
32038;SDS011;18549;42.286;22.688;2022-08-04T13:07:13;2.80;;;2.15;;
32038;SDS011;18549;42.286;22.688;2022-08-04T13:09:44;2.17;;;1.92;;
32038;SDS011;18549;42.286;22.688;2022-08-04T13:12:12;4.70;;;2.17;;
32038;SDS011;18549;42.286;22.688;2022-08-04T13:14:42;2.33;;;2.10;;
32038;SDS011;18549;42.286;22.688;2022-08-04T13:17:12;2.60;;;2.28;;
32038;SDS011;18549;42.286;22.688;2022-08-04T13:19:38;5.35;;;2.28;;
32038;SDS011;18549;42.286;22.688;2022-08-04T13:22:10;3.17;;;2.30;;
32038;SDS011;18549;42.286;22.688;2022-08-04T13:24:36;3.12;;;1.80;;
32038;SDS011;18549;42.286;22.688;2022-08-04T13:27:04;2.40;;;2.15;;
32038;SDS011;18549;42.286;22.688;2022-08-04T13:29:40;4.90;;;2.78;;
32038;SDS011;18549;42.286;22.688;2022-08-04T13:32:07;5.22;;;2.10;;
32038;SDS011;18549;42.286;22.688;2022-08-04T13:34:35;3.58;;;2.17;;
32038;SDS011;18549;42.286;22.688;2022-08-04T13:37:04;6.25;;;2.42;;
32038;SDS011;18549;42.286;22.688;2022-08-04T13:39:31;2.78;;;2.20;;
32038;SDS011;18549;42.286;22.688;2022-08-04T13:42:01;2.67;;;2.47;;
32038;SDS011;18549;42.286;22.688;2022-08-04T13:44:30;4.80;;;2.20;;
32038;SDS011;18549;42.286;22.688;2022-08-04T13:46:58;6.05;;;2.50;;
32038;SDS011;18549;42.286;22.688;2022-08-04T13:49:29;3.50;;;2.80;;
32038;SDS011;18549;42.286;22.688;2022-08-04T13:51:55;4.93;;;2.05;;
32038;SDS011;18549;42.286;22.688;2022-08-04T13:54:23;3.30;;;2.45;;
32038;SDS011;18549;42.286;22.688;2022-08-04T13:57:11;2.92;;;1.83;;
32038;SDS011;18549;42.286;22.688;2022-08-04T13:59:36;3.30;;;2.20;;
32038;SDS011;18549;42.286;22.688;2022-08-04T14:02:05;2.85;;;2.25;;
32038;SDS011;18549;42.286;22.688;2022-08-04T14:04:35;3.55;;;2.65;;
32038;SDS011;18549;42.286;22.688;2022-08-04T14:07:16;2.92;;;2.20;;
32038;SDS011;18549;42.286;22.688;2022-08-04T14:09:43;4.22;;;2.22;;
32038;SDS011;18549;42.286;22.688;2022-08-04T14:12:11;4.22;;;2.37;;
32038;SDS011;18549;42.286;22.688;2022-08-04T14:15:11;2.72;;;2.47;;
32038;SDS011;18549;42.286;22.688;2022-08-04T14:17:29;2.45;;;2.10;;
32038;SDS011;18549;42.286;22.688;2022-08-04T14:19:56;2.55;;;2.30;;
32038;SDS011;18549;42.286;22.688;2022-08-04T14:24:54;3.22;;;2.33;;
32038;SDS011;18549;42.286;22.688;2022-08-04T14:27:28;5.85;;;2.10;;
32038;SDS011;18549;42.286;22.688;2022-08-04T14:29:55;4.15;;;2.50;;
32038;SDS011;18549;42.286;22.688;2022-08-04T14:32:20;5.62;;;2.33;;
32038;SDS011;18549;42.286;22.688;2022-08-04T14:34:46;5.22;;;2.33;;
32038;SDS011;18549;42.286;22.688;2022-08-04T14:37:13;4.07;;;2.50;;
32038;SDS011;18549;42.286;22.688;2022-08-04T14:39:45;10.68;;;2.45;;
32038;SDS011;18549;42.286;22.688;2022-08-04T14:42:13;3.70;;;2.20;;
32038;SDS011;18549;42.286;22.688;2022-08-04T14:45:12;4.87;;;2.28;;
32038;SDS011;18549;42.286;22.688;2022-08-04T14:47:39;2.83;;;2.15;;
32038;SDS011;18549;42.286;22.688;2022-08-04T14:50:07;2.83;;;2.15;;
32038;SDS011;18549;42.286;22.688;2022-08-04T14:52:36;2.92;;;2.30;;
32038;SDS011;18549;42.286;22.688;2022-08-04T14:55:19;2.65;;;2.40;;
32038;SDS011;18549;42.286;22.688;2022-08-04T14:57:50;4.68;;;2.65;;
32038;SDS011;18549;42.286;22.688;2022-08-04T15:00:23;5.65;;;2.12;;
32038;SDS011;18549;42.286;22.688;2022-08-04T15:02:50;2.60;;;1.90;;
32038;SDS011;18549;42.286;22.688;2022-08-04T15:05:16;3.40;;;2.45;;
32038;SDS011;18549;42.286;22.688;2022-08-04T15:07:45;5.65;;;2.00;;
32038;SDS011;18549;42.286;22.688;2022-08-04T15:10:10;4.25;;;2.33;;
32038;SDS011;18549;42.286;22.688;2022-08-04T15:12:38;2.70;;;2.15;;
32038;SDS011;18549;42.286;22.688;2022-08-04T15:15:04;9.25;;;2.78;;
32038;SDS011;18549;42.286;22.688;2022-08-04T15:17:30;4.43;;;3.05;;
32038;SDS011;18549;42.286;22.688;2022-08-04T15:19:56;2.42;;;2.03;;
32038;SDS011;18549;42.286;22.688;2022-08-04T15:22:22;7.68;;;2.80;;
32038;SDS011;18549;42.286;22.688;2022-08-04T15:24:48;3.30;;;2.80;;
32038;SDS011;18549;42.286;22.688;2022-08-04T15:27:13;5.30;;;2.45;;
32038;SDS011;18549;42.286;22.688;2022-08-04T15:29:44;6.12;;;2.45;;
32038;SDS011;18549;42.286;22.688;2022-08-04T15:32:12;6.87;;;2.90;;
32038;SDS011;18549;42.286;22.688;2022-08-04T15:34:46;5.12;;;2.50;;
32038;SDS011;18549;42.286;22.688;2022-08-04T15:37:36;4.10;;;2.60;;
32038;SDS011;18549;42.286;22.688;2022-08-04T15:40:13;2.33;;;2.08;;
32038;SDS011;18549;42.286;22.688;2022-08-04T15:43:06;9.70;;;3.75;;
32038;SDS011;18549;42.286;22.688;2022-08-04T15:45:56;6.07;;;4.43;;
32038;SDS011;18549;42.286;22.688;2022-08-04T15:48:26;9.35;;;2.83;;
32038;SDS011;18549;42.286;22.688;2022-08-04T15:53:26;4.62;;;2.37;;
32038;SDS011;18549;42.286;22.688;2022-08-04T15:55:54;4.57;;;2.72;;
32038;SDS011;18549;42.286;22.688;2022-08-04T15:58:20;4.85;;;2.72;;
32038;SDS011;18549;42.286;22.688;2022-08-04T16:08:31;7.03;;;3.00;;
32038;SDS011;18549;42.286;22.688;2022-08-04T16:16:45;9.63;;;2.58;;
32038;SDS011;18549;42.286;22.688;2022-08-04T16:21:51;6.35;;;3.05;;
32038;SDS011;18549;42.286;22.688;2022-08-04T16:24:28;6.37;;;3.50;;
32038;SDS011;18549;42.286;22.688;2022-08-04T16:27:07;3.12;;;2.40;;
32038;SDS011;18549;42.286;22.688;2022-08-04T16:29:35;7.47;;;4.50;;
32038;SDS011;18549;42.286;22.688;2022-08-04T16:37:14;4.28;;;3.15;;
32038;SDS011;18549;42.286;22.688;2022-08-04T16:39:42;8.75;;;3.08;;
32038;SDS011;18549;42.286;22.688;2022-08-04T16:45:13;3.35;;;2.97;;
32038;SDS011;18549;42.286;22.688;2022-08-04T16:50:14;10.70;;;3.35;;
32038;SDS011;18549;42.286;22.688;2022-08-04T16:52:46;4.43;;;3.08;;
32038;SDS011;18549;42.286;22.688;2022-08-04T16:55:14;11.95;;;3.90;;
32038;SDS011;18549;42.286;22.688;2022-08-04T16:57:44;9.25;;;4.18;;
32038;SDS011;18549;42.286;22.688;2022-08-04T17:00:11;7.95;;;3.85;;
32038;SDS011;18549;42.286;22.688;2022-08-04T17:02:36;5.15;;;3.58;;
32038;SDS011;18549;42.286;22.688;2022-08-04T17:05:02;6.95;;;3.97;;
32038;SDS011;18549;42.286;22.688;2022-08-04T17:07:27;6.18;;;3.95;;
32038;SDS011;18549;42.286;22.688;2022-08-04T17:09:53;4.55;;;3.12;;
32038;SDS011;18549;42.286;22.688;2022-08-04T17:12:26;5.35;;;4.37;;
32038;SDS011;18549;42.286;22.688;2022-08-04T17:14:52;6.68;;;3.65;;
32038;SDS011;18549;42.286;22.688;2022-08-04T17:17:18;7.30;;;3.30;;
32038;SDS011;18549;42.286;22.688;2022-08-04T17:19:50;8.85;;;3.60;;
32038;SDS011;18549;42.286;22.688;2022-08-04T17:22:17;4.80;;;3.83;;
32038;SDS011;18549;42.286;22.688;2022-08-04T17:24:43;8.65;;;3.97;;
32038;SDS011;18549;42.286;22.688;2022-08-04T17:27:09;6.87;;;4.12;;
32038;SDS011;18549;42.286;22.688;2022-08-04T17:29:35;4.53;;;3.60;;
32038;SDS011;18549;42.286;22.688;2022-08-04T17:32:00;7.20;;;3.85;;
32038;SDS011;18549;42.286;22.688;2022-08-04T17:34:27;9.48;;;3.55;;
32038;SDS011;18549;42.286;22.688;2022-08-04T17:36:52;5.30;;;3.33;;
32038;SDS011;18549;42.286;22.688;2022-08-04T17:39:18;9.60;;;4.07;;
32038;SDS011;18549;42.286;22.688;2022-08-04T17:41:47;7.30;;;4.20;;
32038;SDS011;18549;42.286;22.688;2022-08-04T17:44:12;8.48;;;4.03;;
32038;SDS011;18549;42.286;22.688;2022-08-04T17:46:38;9.60;;;4.70;;
32038;SDS011;18549;42.286;22.688;2022-08-04T17:54:12;5.20;;;3.60;;
32038;SDS011;18549;42.286;22.688;2022-08-04T17:56:41;5.57;;;3.87;;
32038;SDS011;18549;42.286;22.688;2022-08-04T18:07:12;4.72;;;3.45;;
32038;SDS011;18549;42.286;22.688;2022-08-04T18:12:20;15.52;;;5.37;;
32038;SDS011;18549;42.286;22.688;2022-08-04T18:14:48;13.38;;;4.15;;
32038;SDS011;18549;42.286;22.688;2022-08-04T18:17:34;12.23;;;3.95;;
32038;SDS011;18549;42.286;22.688;2022-08-04T18:20:01;5.47;;;3.62;;
32038;SDS011;18549;42.286;22.688;2022-08-04T18:22:29;5.05;;;3.87;;
32038;SDS011;18549;42.286;22.688;2022-08-04T18:24:54;4.82;;;3.33;;
32038;SDS011;18549;42.286;22.688;2022-08-04T18:27:21;12.20;;;4.10;;
32038;SDS011;18549;42.286;22.688;2022-08-04T18:29:48;4.60;;;3.47;;
32038;SDS011;18549;42.286;22.688;2022-08-04T18:32:14;10.00;;;3.45;;
32038;SDS011;18549;42.286;22.688;2022-08-04T18:34:41;5.07;;;4.00;;
32038;SDS011;18549;42.286;22.688;2022-08-04T18:37:06;4.55;;;3.75;;
32038;SDS011;18549;42.286;22.688;2022-08-04T18:39:33;5.40;;;3.85;;
32038;SDS011;18549;42.286;22.688;2022-08-04T18:41:59;3.25;;;2.80;;
32038;SDS011;18549;42.286;22.688;2022-08-04T18:44:25;5.45;;;3.30;;
32038;SDS011;18549;42.286;22.688;2022-08-04T18:46:55;4.55;;;3.12;;
32038;SDS011;18549;42.286;22.688;2022-08-04T18:49:21;3.70;;;2.80;;
32038;SDS011;18549;42.286;22.688;2022-08-04T18:51:49;4.80;;;2.90;;
32038;SDS011;18549;42.286;22.688;2022-08-04T18:54:18;3.97;;;2.33;;
32038;SDS011;18549;42.286;22.688;2022-08-04T18:56:44;4.72;;;3.03;;
32038;SDS011;18549;42.286;22.688;2022-08-04T18:59:09;3.60;;;3.08;;
32038;SDS011;18549;42.286;22.688;2022-08-04T19:01:35;4.07;;;3.30;;
32038;SDS011;18549;42.286;22.688;2022-08-04T19:04:00;10.30;;;3.05;;
32038;SDS011;18549;42.286;22.688;2022-08-04T19:06:27;3.70;;;2.80;;
32038;SDS011;18549;42.286;22.688;2022-08-04T19:08:54;6.07;;;3.08;;
32038;SDS011;18549;42.286;22.688;2022-08-04T19:11:21;4.90;;;3.00;;
32038;SDS011;18549;42.286;22.688;2022-08-04T19:13:46;2.85;;;2.60;;
32038;SDS011;18549;42.286;22.688;2022-08-04T19:16:12;4.55;;;2.85;;
32038;SDS011;18549;42.286;22.688;2022-08-04T19:18:37;3.83;;;2.62;;
32038;SDS011;18549;42.286;22.688;2022-08-04T19:21:03;3.37;;;2.25;;
32038;SDS011;18549;42.286;22.688;2022-08-04T19:23:29;8.07;;;3.25;;
32038;SDS011;18549;42.286;22.688;2022-08-04T19:25:55;4.72;;;3.28;;
32038;SDS011;18549;42.286;22.688;2022-08-04T19:28:22;4.45;;;2.67;;
32038;SDS011;18549;42.286;22.688;2022-08-04T19:30:48;2.90;;;2.30;;
32038;SDS011;18549;42.286;22.688;2022-08-04T19:33:14;5.57;;;2.83;;
32038;SDS011;18549;42.286;22.688;2022-08-04T19:35:40;4.53;;;2.83;;
32038;SDS011;18549;42.286;22.688;2022-08-04T19:38:07;8.15;;;3.10;;
32038;SDS011;18549;42.286;22.688;2022-08-04T19:40:35;6.15;;;2.90;;
32038;SDS011;18549;42.286;22.688;2022-08-04T19:43:03;4.40;;;2.75;;
32038;SDS011;18549;42.286;22.688;2022-08-04T19:45:30;4.10;;;3.25;;
32038;SDS011;18549;42.286;22.688;2022-08-04T19:47:56;5.07;;;3.33;;
32038;SDS011;18549;42.286;22.688;2022-08-04T19:50:21;4.20;;;3.03;;